createdAt,value
2017-07-21T00:00:57.876Z,1.90
2017-07-21T00:01:57.786Z,1.90
2017-07-21T00:02:57.834Z,1.90
2017-07-21T00:03:57.838Z,1.90
2017-07-21T00:04:57.808Z,1.90
2017-07-21T00:05:57.800Z,4.00
2017-07-21T00:06:57.779Z,4.00
2017-07-21T00:07:57.808Z,4.00
2017-07-21T00:08:57.786Z,4.00
2017-07-21T00:09:57.806Z,4.00
2017-07-21T00:10:57.761Z,4.00
2017-07-21T00:11:57.787Z,4.00
2017-07-21T00:12:57.814Z,4.00
2017-07-21T00:13:57.803Z,4.00
2017-07-21T00:14:57.860Z,4.00
2017-07-21T00:15:57.887Z,2.30
2017-07-21T00:16:57.882Z,2.30
2017-07-21T00:17:57.815Z,2.30
2017-07-21T00:18:57.860Z,2.30
2017-07-21T00:19:57.817Z,2.30
2017-07-21T00:20:57.798Z,2.30
2017-07-21T00:21:57.819Z,2.30
2017-07-21T00:22:57.847Z,2.30
2017-07-21T00:23:57.886Z,2.30
2017-07-21T00:24:57.862Z,2.30
2017-07-21T00:25:57.816Z,1.70
2017-07-21T00:26:57.850Z,1.70
2017-07-21T00:27:57.853Z,1.70
2017-07-21T00:28:57.853Z,1.70
2017-07-21T00:29:57.847Z,1.70
2017-07-21T00:30:57.820Z,1.70
2017-07-21T00:31:57.850Z,1.70
2017-07-21T00:32:57.854Z,1.70
2017-07-21T00:33:57.797Z,1.70
2017-07-21T00:34:57.793Z,1.70
2017-07-21T00:35:57.855Z,1.50
2017-07-21T00:36:57.806Z,1.50
2017-07-21T00:37:57.857Z,1.50
2017-07-21T00:38:57.797Z,1.50
2017-07-21T00:39:57.799Z,1.50
2017-07-21T00:40:57.798Z,1.50
2017-07-21T00:41:57.796Z,1.50
2017-07-21T00:42:57.801Z,1.50
2017-07-21T00:43:57.863Z,1.50
2017-07-21T00:44:57.799Z,1.50
2017-07-21T00:45:57.824Z,2.50
2017-07-21T00:46:57.936Z,2.50
2017-07-21T00:47:57.833Z,2.50
2017-07-21T00:48:57.906Z,2.50
2017-07-21T00:49:57.841Z,2.50
2017-07-21T00:50:57.849Z,2.50
2017-07-21T00:51:57.837Z,2.50
2017-07-21T00:52:57.847Z,2.50
2017-07-21T00:53:57.814Z,2.50
2017-07-21T00:54:57.873Z,2.50
2017-07-21T00:55:57.865Z,2.30
2017-07-21T00:56:57.833Z,2.30
2017-07-21T00:57:57.871Z,2.30
2017-07-21T00:58:57.909Z,2.30
2017-07-21T00:59:57.871Z,2.30
2017-07-21T01:00:57.803Z,2.30
2017-07-21T01:01:57.872Z,2.30
2017-07-21T01:02:57.838Z,2.30
2017-07-21T01:03:57.869Z,2.30
2017-07-21T01:04:57.839Z,2.30
2017-07-21T01:05:57.894Z,2.30
2017-07-21T01:06:57.876Z,2.30
2017-07-21T01:07:57.821Z,2.30
2017-07-21T01:08:57.917Z,2.30
2017-07-21T01:09:57.887Z,2.30
2017-07-21T01:10:57.857Z,2.30
2017-07-21T01:11:57.917Z,2.30
2017-07-21T01:12:57.853Z,2.30
2017-07-21T01:13:57.854Z,2.30
2017-07-21T01:14:57.863Z,2.30
2017-07-21T01:15:57.853Z,2.99
2017-07-21T01:16:57.884Z,2.99
2017-07-21T01:17:57.904Z,2.99
2017-07-21T01:18:57.895Z,2.99
2017-07-21T01:19:57.880Z,2.99
2017-07-21T01:20:57.953Z,2.99
2017-07-21T01:21:57.854Z,2.99
2017-07-21T01:22:57.895Z,2.99
2017-07-21T01:23:57.831Z,2.99
2017-07-21T01:24:57.829Z,2.99
2017-07-21T01:25:57.899Z,1.60
2017-07-21T01:26:57.898Z,1.60
2017-07-21T01:27:57.900Z,1.60
2017-07-21T01:28:57.920Z,1.60
2017-07-21T01:29:57.885Z,1.60
2017-07-21T01:30:57.838Z,1.60
2017-07-21T01:31:57.883Z,1.60
2017-07-21T01:32:57.901Z,1.60
2017-07-21T01:33:57.928Z,1.60
2017-07-21T01:34:57.886Z,1.60
2017-07-21T01:35:57.888Z,2.70
2017-07-21T01:36:57.870Z,2.70
2017-07-21T01:37:57.899Z,2.70
2017-07-21T01:38:57.867Z,2.70
2017-07-21T01:39:57.924Z,2.70
2017-07-21T01:40:57.926Z,2.70
2017-07-21T01:41:57.856Z,2.70
2017-07-21T01:42:57.904Z,2.70
2017-07-21T01:43:57.873Z,2.70
2017-07-21T01:44:57.876Z,2.70
2017-07-21T01:45:57.896Z,1.80
2017-07-21T01:46:57.929Z,1.80
2017-07-21T01:47:57.931Z,1.80
2017-07-21T01:48:57.904Z,1.80
2017-07-21T01:49:57.938Z,1.80
2017-07-21T01:50:57.898Z,1.80
2017-07-21T01:51:57.904Z,1.80
2017-07-21T01:52:57.880Z,1.80
2017-07-21T01:53:57.846Z,1.80
2017-07-21T01:54:57.939Z,1.80
2017-07-21T01:55:57.902Z,1.60
2017-07-21T01:56:57.879Z,1.60
2017-07-21T01:57:57.910Z,1.60
2017-07-21T01:59:57.915Z,1.60
2017-07-21T02:00:57.924Z,1.60
2017-07-21T02:01:57.883Z,1.60
2017-07-21T02:02:57.847Z,1.60
2017-07-21T02:03:57.887Z,1.60
2017-07-21T02:04:57.910Z,1.60
2017-07-21T02:05:57.898Z,2.80
2017-07-21T02:06:57.848Z,2.80
2017-07-21T02:07:57.834Z,2.80
2017-07-21T02:08:57.867Z,2.80
2017-07-21T02:09:57.849Z,2.80
2017-07-21T02:10:57.834Z,2.80
2017-07-21T02:11:57.837Z,2.80
2017-07-21T02:12:57.853Z,2.80
2017-07-21T02:13:57.904Z,2.80
2017-07-21T02:14:57.927Z,2.80
2017-07-21T02:15:57.856Z,2.50
2017-07-21T02:16:57.894Z,2.50
2017-07-21T02:17:57.880Z,2.50
2017-07-21T02:18:57.984Z,2.50
2017-07-21T02:19:57.932Z,2.50
2017-07-21T02:20:57.931Z,2.50
2017-07-21T02:21:57.897Z,2.50
2017-07-21T02:22:57.888Z,2.50
2017-07-21T02:23:57.893Z,2.50
2017-07-21T02:24:57.895Z,2.50
2017-07-21T02:25:57.916Z,3.20
2017-07-21T02:26:57.855Z,3.20
2017-07-21T02:27:57.857Z,3.20
2017-07-21T02:28:57.921Z,3.20
2017-07-21T02:29:57.886Z,3.20
2017-07-21T02:30:57.918Z,3.20
2017-07-21T02:31:57.886Z,3.20
2017-07-21T02:32:57.920Z,3.20
2017-07-21T02:33:57.889Z,3.20
2017-07-21T02:34:57.923Z,3.20
2017-07-21T02:35:57.922Z,1.70
2017-07-21T02:36:57.893Z,1.70
2017-07-21T02:37:57.865Z,1.70
2017-07-21T02:38:57.931Z,1.70
2017-07-21T02:39:57.868Z,1.70
2017-07-21T02:40:57.874Z,1.70
2017-07-21T02:41:57.864Z,1.70
2017-07-21T02:42:57.890Z,1.70
2017-07-21T02:43:57.927Z,1.70
2017-07-21T02:44:57.867Z,1.70
2017-07-21T02:45:57.948Z,2.30
2017-07-21T02:46:57.941Z,2.30
2017-07-21T02:47:57.944Z,2.30
2017-07-21T02:48:57.929Z,2.30
2017-07-21T02:49:57.945Z,2.30
2017-07-21T02:50:57.971Z,2.30
2017-07-21T02:51:57.917Z,2.30
2017-07-21T02:52:57.880Z,2.30
2017-07-21T02:53:57.909Z,2.30
2017-07-21T02:54:57.908Z,2.30
2017-07-21T02:55:57.916Z,3.20
2017-07-21T02:56:57.875Z,3.20
2017-07-21T02:57:57.934Z,3.20
2017-07-21T02:58:57.900Z,3.20
2017-07-21T02:59:57.911Z,3.20
2017-07-21T03:00:57.942Z,3.20
2017-07-21T03:01:57.938Z,3.20
2017-07-21T03:02:57.877Z,3.20
2017-07-21T03:03:57.877Z,3.20
2017-07-21T03:04:57.881Z,3.20
2017-07-21T03:05:57.911Z,4.00
2017-07-21T03:06:57.950Z,4.00
2017-07-21T03:07:57.912Z,4.00
2017-07-21T03:08:57.910Z,4.00
2017-07-21T03:09:57.882Z,4.00
2017-07-21T03:10:57.885Z,4.00
2017-07-21T03:11:57.881Z,4.00
2017-07-21T03:12:57.888Z,4.00
2017-07-21T03:13:57.945Z,4.00
2017-07-21T03:14:57.883Z,4.00
2017-07-21T03:15:57.927Z,2.80
2017-07-21T03:16:57.959Z,2.80
2017-07-21T03:17:57.983Z,2.80
2017-07-21T03:18:58.059Z,2.80
2017-07-21T03:19:58.033Z,2.80
2017-07-21T03:20:57.946Z,2.80
2017-07-21T03:21:57.893Z,2.80
2017-07-21T03:22:57.932Z,2.80
2017-07-21T03:23:57.906Z,2.80
2017-07-21T03:24:57.895Z,2.80
2017-07-21T03:25:57.904Z,1.50
2017-07-21T03:26:57.908Z,1.50
2017-07-21T03:27:57.910Z,1.50
2017-07-21T03:28:58.026Z,1.50
2017-07-21T03:29:57.961Z,1.50
2017-07-21T03:30:57.961Z,1.50
2017-07-21T03:31:57.956Z,1.50
2017-07-21T03:32:57.976Z,1.50
2017-07-21T03:33:57.958Z,1.50
2017-07-21T03:34:57.933Z,1.50
2017-07-21T03:35:57.902Z,2.60
2017-07-21T03:36:57.928Z,2.60
2017-07-21T03:37:57.961Z,2.60
2017-07-21T03:38:57.928Z,2.60
2017-07-21T03:39:57.928Z,2.60
2017-07-21T03:40:57.961Z,2.60
2017-07-21T03:41:57.901Z,2.60
2017-07-21T03:42:57.960Z,2.60
2017-07-21T03:43:57.933Z,2.60
2017-07-21T03:44:57.906Z,2.60
2017-07-21T03:45:57.906Z,1.90
2017-07-21T03:46:57.904Z,1.90
2017-07-21T03:47:57.970Z,1.90
2017-07-21T03:48:57.933Z,1.90
2017-07-21T03:49:57.964Z,1.90
2017-07-21T03:50:57.916Z,1.90
2017-07-21T03:51:57.905Z,1.90
2017-07-21T03:52:57.930Z,1.90
2017-07-21T03:53:57.935Z,1.90
2017-07-21T03:54:57.978Z,1.90
2017-07-21T03:55:58.005Z,2.99
2017-07-21T03:56:57.997Z,2.99
2017-07-21T03:57:57.941Z,2.99
2017-07-21T03:58:57.947Z,2.99
2017-07-21T03:59:57.914Z,2.99
2017-07-21T04:00:57.989Z,2.99
2017-07-21T04:01:58.005Z,2.99
2017-07-21T04:02:58.013Z,2.99
2017-07-21T04:03:57.919Z,2.99
2017-07-21T04:04:57.975Z,2.99
2017-07-21T04:05:58.020Z,2.99
2017-07-21T04:06:57.979Z,2.30
2017-07-21T04:07:57.987Z,2.30
2017-07-21T04:08:57.984Z,2.30
2017-07-21T04:09:57.948Z,2.30
2017-07-21T04:10:57.960Z,2.30
2017-07-21T04:11:57.922Z,2.30
2017-07-21T04:12:57.991Z,2.30
2017-07-21T04:13:57.951Z,2.30
2017-07-21T04:14:57.954Z,2.30
2017-07-21T04:15:58.009Z,2.30
2017-07-21T04:16:57.924Z,4.20
2017-07-21T04:17:58.005Z,4.20
2017-07-21T04:18:57.933Z,4.20
2017-07-21T04:19:58.003Z,4.20
2017-07-21T04:20:57.933Z,4.20
2017-07-21T04:21:58.000Z,4.20
2017-07-21T04:22:57.978Z,4.20
2017-07-21T04:23:57.931Z,4.20
2017-07-21T04:24:57.966Z,4.20
2017-07-21T04:25:57.960Z,4.20
2017-07-21T04:26:57.970Z,4.40
2017-07-21T04:27:57.956Z,4.40
2017-07-21T04:28:57.964Z,4.40
2017-07-21T04:29:57.934Z,4.40
2017-07-21T04:30:58.007Z,4.40
2017-07-21T04:31:57.988Z,4.40
2017-07-21T04:32:57.969Z,4.40
2017-07-21T04:33:57.939Z,4.40
2017-07-21T04:34:58.028Z,4.40
2017-07-21T04:35:57.968Z,4.40
2017-07-21T04:36:58.021Z,3.20
2017-07-21T04:37:57.967Z,3.20
2017-07-21T04:38:57.998Z,3.20
2017-07-21T04:39:58.013Z,3.20
2017-07-21T04:40:57.944Z,3.20
2017-07-21T04:41:58.046Z,3.20
2017-07-21T04:42:58.014Z,3.20
2017-07-21T04:43:58.006Z,3.20
2017-07-21T04:44:57.975Z,3.20
2017-07-21T04:45:57.974Z,3.20
2017-07-21T04:46:57.944Z,2.50
2017-07-21T04:47:57.957Z,2.50
2017-07-21T04:48:57.964Z,2.50
2017-07-21T04:49:57.961Z,2.50
2017-07-21T04:50:57.971Z,2.50
2017-07-21T04:51:57.953Z,2.50
2017-07-21T04:52:57.951Z,2.50
2017-07-21T04:53:58.212Z,2.50
2017-07-21T04:54:57.922Z,2.50
2017-07-21T04:55:57.965Z,2.50
2017-07-21T04:56:58.086Z,2.10
2017-07-21T04:57:57.939Z,2.10
2017-07-21T04:58:57.980Z,2.10
2017-07-21T04:59:57.948Z,2.10
2017-07-21T05:00:57.979Z,2.10
2017-07-21T05:01:57.957Z,2.10
2017-07-21T05:02:58.011Z,2.10
2017-07-21T05:03:58.010Z,2.10
2017-07-21T05:04:58.026Z,2.10
2017-07-21T05:05:57.978Z,2.10
2017-07-21T05:06:57.984Z,2.60
2017-07-21T05:07:58.041Z,2.60
2017-07-21T05:08:57.965Z,2.60
2017-07-21T05:09:57.993Z,2.60
2017-07-21T05:10:57.965Z,2.60
2017-07-21T05:11:57.962Z,2.60
2017-07-21T05:12:58.016Z,2.60
2017-07-21T05:13:57.957Z,2.60
2017-07-21T05:14:58.056Z,2.60
2017-07-21T05:15:58.025Z,2.60
2017-07-21T05:16:57.977Z,3.30
2017-07-21T05:17:57.982Z,3.30
2017-07-21T05:18:57.949Z,3.30
2017-07-21T05:19:57.980Z,3.30
2017-07-21T05:20:57.952Z,3.30
2017-07-21T05:21:57.984Z,3.30
2017-07-21T05:22:58.019Z,3.30
2017-07-21T05:23:57.985Z,3.30
2017-07-21T05:24:57.951Z,3.30
2017-07-21T05:25:57.997Z,3.30
2017-07-21T05:26:58.024Z,4.99
2017-07-21T05:27:57.955Z,4.99
2017-07-21T05:28:57.956Z,4.99
2017-07-21T05:29:58.018Z,4.99
2017-07-21T05:30:58.023Z,4.99
2017-07-21T05:31:58.020Z,4.99
2017-07-21T05:32:57.985Z,4.99
2017-07-21T05:33:57.964Z,4.99
2017-07-21T05:34:57.959Z,4.99
2017-07-21T05:35:57.960Z,4.99
2017-07-21T05:36:57.969Z,2.00
2017-07-21T05:37:57.971Z,2.00
2017-07-21T05:38:57.970Z,2.00
2017-07-21T05:39:57.994Z,2.00
2017-07-21T05:40:57.974Z,2.00
2017-07-21T05:41:57.989Z,2.00
2017-07-21T05:42:58.044Z,2.00
2017-07-21T05:43:58.041Z,2.00
2017-07-21T05:44:57.970Z,2.00
2017-07-21T05:45:57.948Z,2.00
2017-07-21T05:46:58.072Z,3.90
2017-07-21T05:47:58.009Z,3.90
2017-07-21T05:48:57.998Z,3.90
2017-07-21T05:49:58.069Z,3.90
2017-07-21T05:50:58.015Z,3.90
2017-07-21T05:51:58.051Z,3.90
2017-07-21T05:52:57.982Z,3.90
2017-07-21T05:53:58.011Z,3.90
2017-07-21T05:54:57.980Z,3.90
2017-07-21T05:55:58.073Z,3.90
2017-07-21T05:56:57.979Z,2.50
2017-07-21T05:57:58.007Z,2.50
2017-07-21T05:58:58.024Z,2.50
2017-07-21T05:59:58.076Z,2.50
2017-07-21T06:00:58.040Z,2.50
2017-07-21T06:01:57.983Z,2.50
2017-07-21T06:02:57.986Z,2.50
2017-07-21T06:03:57.986Z,2.50
2017-07-21T06:04:57.985Z,2.50
2017-07-21T06:05:58.044Z,2.50
2017-07-21T06:06:57.989Z,3.00
2017-07-21T06:07:57.962Z,3.00
2017-07-21T06:08:57.924Z,3.00
2017-07-21T06:09:58.006Z,3.00
2017-07-21T06:10:57.951Z,3.00
2017-07-21T06:11:57.985Z,3.00
2017-07-21T06:12:57.969Z,3.00
2017-07-21T06:13:58.037Z,3.00
2017-07-21T06:14:58.004Z,3.00
2017-07-21T06:15:57.987Z,3.00
2017-07-21T06:16:58.017Z,3.30
2017-07-21T06:17:58.016Z,3.30
2017-07-21T06:18:58.016Z,3.30
2017-07-21T06:19:57.989Z,3.30
2017-07-21T06:20:57.986Z,3.30
2017-07-21T06:21:57.992Z,3.30
2017-07-21T06:22:58.019Z,3.30
2017-07-21T06:23:58.076Z,3.30
2017-07-21T06:24:57.985Z,3.30
2017-07-21T06:25:58.024Z,3.30
2017-07-21T06:26:57.989Z,3.90
2017-07-21T06:27:58.023Z,3.90
2017-07-21T06:28:58.057Z,3.90
2017-07-21T06:29:58.054Z,3.90
2017-07-21T06:30:58.055Z,3.90
2017-07-21T06:31:58.025Z,3.90
2017-07-21T06:32:58.024Z,3.90
2017-07-21T06:33:58.059Z,3.90
2017-07-21T06:34:58.000Z,3.90
2017-07-21T06:35:58.059Z,3.90
2017-07-21T06:36:58.077Z,4.80
2017-07-21T06:37:58.013Z,4.80
2017-07-21T06:38:58.029Z,4.80
2017-07-21T06:39:58.026Z,4.80
2017-07-21T06:40:58.016Z,4.80
2017-07-21T06:41:58.026Z,4.80
2017-07-21T06:42:58.011Z,4.80
2017-07-21T06:43:58.036Z,4.80
2017-07-21T06:44:58.023Z,4.80
2017-07-21T06:45:58.018Z,4.80
2017-07-21T06:46:58.104Z,4.20
2017-07-21T06:47:58.072Z,4.20
2017-07-21T06:48:58.100Z,4.20
2017-07-21T06:49:58.013Z,4.20
2017-07-21T06:50:58.049Z,4.20
2017-07-21T06:51:58.012Z,4.20
2017-07-21T06:52:58.040Z,4.20
2017-07-21T06:53:58.099Z,4.20
2017-07-21T06:54:58.080Z,4.20
2017-07-21T06:55:58.055Z,4.20
2017-07-21T06:56:58.130Z,7.90
2017-07-21T06:57:58.004Z,7.90
2017-07-21T06:58:58.075Z,7.90
2017-07-21T06:59:58.074Z,7.90
2017-07-21T07:00:58.008Z,7.90
2017-07-21T07:01:58.041Z,7.90
2017-07-21T07:02:58.072Z,7.90
2017-07-21T07:03:58.039Z,7.90
2017-07-21T07:04:58.076Z,7.90
2017-07-21T07:05:58.048Z,7.90
2017-07-21T07:06:58.084Z,6.90
2017-07-21T07:07:58.045Z,6.90
2017-07-21T07:08:58.045Z,6.90
2017-07-21T07:09:58.002Z,6.90
2017-07-21T07:10:58.045Z,6.90
2017-07-21T07:11:58.047Z,6.90
2017-07-21T07:12:58.039Z,6.90
2017-07-21T07:13:57.999Z,6.90
2017-07-21T07:14:58.048Z,6.90
2017-07-21T07:15:58.034Z,6.90
2017-07-21T07:16:58.157Z,10.90
2017-07-21T07:17:58.066Z,10.90
2017-07-21T07:18:58.035Z,10.90
2017-07-21T07:19:58.053Z,10.90
2017-07-21T07:20:58.066Z,10.90
2017-07-21T07:21:58.124Z,10.90
2017-07-21T07:22:58.035Z,10.90
2017-07-21T07:23:58.136Z,10.90
2017-07-21T07:24:58.032Z,10.90
2017-07-21T07:25:58.033Z,10.90
2017-07-21T07:26:58.026Z,6.80
2017-07-21T07:27:58.087Z,6.80
2017-07-21T07:28:58.024Z,6.80
2017-07-21T07:29:58.085Z,6.80
2017-07-21T07:30:58.125Z,6.80
2017-07-21T07:31:58.054Z,6.80
2017-07-21T07:32:58.025Z,6.80
2017-07-21T07:33:58.060Z,6.80
2017-07-21T07:34:58.056Z,6.80
2017-07-21T07:35:58.090Z,6.80
2017-07-21T07:36:58.068Z,10.70
2017-07-21T07:37:58.062Z,10.70
2017-07-21T07:38:58.061Z,10.70
2017-07-21T07:39:58.032Z,10.70
2017-07-21T07:40:58.101Z,10.70
2017-07-21T07:41:58.097Z,10.70
2017-07-21T07:43:58.099Z,10.70
2017-07-21T07:44:58.221Z,10.70
2017-07-21T07:45:58.100Z,10.70
2017-07-21T07:46:58.100Z,7.70
2017-07-21T07:47:58.100Z,7.70
2017-07-21T07:48:58.074Z,7.70
2017-07-21T07:49:58.075Z,7.70
2017-07-21T07:50:58.101Z,7.70
2017-07-21T07:51:58.103Z,7.70
2017-07-21T07:52:58.073Z,7.70
2017-07-21T07:53:58.072Z,7.70
2017-07-21T07:54:58.104Z,7.70
2017-07-21T07:55:58.104Z,7.70
2017-07-21T07:56:58.122Z,10.60
2017-07-21T07:57:58.117Z,10.60
2017-07-21T07:58:58.078Z,10.60
2017-07-21T07:59:58.087Z,10.60
2017-07-21T08:00:58.126Z,10.60
2017-07-21T08:01:58.121Z,10.60
2017-07-21T08:02:58.092Z,10.60
2017-07-21T08:03:58.110Z,10.60
2017-07-21T08:04:58.054Z,10.60
2017-07-21T08:05:58.063Z,10.60
2017-07-21T08:06:58.089Z,10.20
2017-07-21T08:07:58.125Z,10.20
2017-07-21T08:08:58.155Z,10.20
2017-07-21T08:09:58.089Z,10.20
2017-07-21T08:10:58.064Z,10.20
2017-07-21T08:11:58.126Z,10.20
2017-07-21T08:12:58.070Z,10.20
2017-07-21T08:13:58.118Z,10.20
2017-07-21T08:14:58.102Z,10.20
2017-07-21T08:15:58.127Z,10.20
2017-07-21T08:16:58.095Z,10.20
2017-07-21T08:17:58.123Z,10.70
2017-07-21T08:18:58.131Z,10.70
2017-07-21T08:19:58.136Z,10.70
2017-07-21T08:20:58.166Z,10.70
2017-07-21T08:21:58.089Z,10.70
2017-07-21T08:22:58.164Z,10.70
2017-07-21T08:23:58.070Z,10.70
2017-07-21T08:24:58.128Z,10.70
2017-07-21T08:25:58.145Z,10.70
2017-07-21T08:26:58.069Z,10.70
2017-07-21T08:27:58.058Z,8.90
2017-07-21T08:28:58.092Z,8.90
2017-07-21T08:29:58.122Z,8.90
2017-07-21T08:30:58.060Z,8.90
2017-07-21T08:31:58.091Z,8.90
2017-07-21T08:32:58.090Z,8.90
2017-07-21T08:33:58.094Z,8.90
2017-07-21T08:34:58.089Z,8.90
2017-07-21T08:35:58.084Z,8.90
2017-07-21T08:36:58.125Z,8.90
2017-07-21T08:37:58.069Z,9.70
2017-07-21T08:38:58.132Z,9.70
2017-07-21T08:39:58.073Z,9.70
2017-07-21T08:40:58.100Z,9.70
2017-07-21T08:41:58.098Z,9.70
2017-07-21T08:42:58.133Z,9.70
2017-07-21T08:43:58.065Z,9.70
2017-07-21T08:44:58.096Z,9.70
2017-07-21T08:45:58.072Z,9.70
2017-07-21T08:46:58.100Z,9.70
2017-07-21T08:47:58.169Z,7.80
2017-07-21T08:48:58.142Z,7.80
2017-07-21T08:49:58.085Z,7.80
2017-07-21T08:50:58.158Z,7.80
2017-07-21T08:51:58.120Z,7.80
2017-07-21T08:52:58.182Z,7.80
2017-07-21T08:53:58.084Z,7.80
2017-07-21T08:54:58.119Z,7.80
2017-07-21T08:55:58.160Z,7.80
2017-07-21T08:56:58.126Z,7.80
2017-07-21T08:57:58.085Z,7.20
2017-07-21T08:58:58.112Z,7.20
2017-07-21T08:59:58.108Z,7.20
2017-07-21T09:00:58.088Z,7.20
2017-07-21T09:01:58.090Z,7.20
2017-07-21T09:02:58.042Z,7.20
2017-07-21T09:03:58.152Z,7.20
2017-07-21T09:04:58.043Z,7.20
2017-07-21T09:05:58.058Z,7.20
2017-07-21T09:06:58.088Z,7.20
2017-07-21T09:07:58.126Z,8.80
2017-07-21T09:08:58.182Z,8.80
2017-07-21T09:09:58.089Z,8.80
2017-07-21T09:10:58.131Z,8.80
2017-07-21T09:11:58.107Z,8.80
2017-07-21T09:12:58.186Z,8.80
2017-07-21T09:13:58.102Z,8.80
2017-07-21T09:14:58.091Z,8.80
2017-07-21T09:15:58.093Z,8.80
2017-07-21T09:16:58.192Z,8.80
2017-07-21T09:17:58.257Z,8.40
2017-07-21T09:18:58.196Z,8.40
2017-07-21T09:19:58.135Z,8.40
2017-07-21T09:20:58.133Z,8.40
2017-07-21T09:21:58.103Z,8.40
2017-07-21T09:22:58.197Z,8.40
2017-07-21T09:23:58.132Z,8.40
2017-07-21T09:24:58.172Z,8.40
2017-07-21T09:25:58.127Z,8.40
2017-07-21T09:26:58.136Z,8.40
2017-07-21T09:27:58.111Z,11.40
2017-07-21T09:28:58.126Z,11.40
2017-07-21T09:29:58.144Z,11.40
2017-07-21T09:30:58.170Z,11.40
2017-07-21T09:31:58.108Z,11.40
2017-07-21T09:32:58.143Z,11.40
2017-07-21T09:33:58.139Z,11.40
2017-07-21T09:34:58.112Z,11.40
2017-07-21T09:35:58.142Z,11.40
2017-07-21T09:36:58.161Z,11.40
2017-07-21T09:37:59.313Z,11.20
2017-07-21T09:38:58.185Z,11.20
2017-07-21T09:39:58.141Z,11.20
2017-07-21T09:40:58.132Z,11.20
2017-07-21T09:41:58.150Z,11.20
2017-07-21T09:42:58.121Z,11.20
2017-07-21T09:43:58.243Z,11.20
2017-07-21T09:44:58.126Z,11.20
2017-07-21T09:45:58.152Z,11.20
2017-07-21T09:46:58.176Z,11.20
2017-07-21T09:47:58.139Z,8.80
2017-07-21T09:48:58.171Z,8.80
2017-07-21T09:49:58.122Z,8.80
2017-07-21T09:50:58.190Z,8.80
2017-07-21T09:51:58.209Z,8.80
2017-07-21T09:52:58.124Z,8.80
2017-07-21T09:53:58.123Z,8.80
2017-07-21T09:54:58.154Z,8.80
2017-07-21T09:55:58.147Z,8.80
2017-07-21T09:56:58.219Z,8.80
2017-07-21T09:57:58.052Z,9.00
2017-07-21T09:58:58.125Z,9.00
2017-07-21T09:59:58.050Z,9.00
2017-07-21T10:00:58.080Z,9.00
2017-07-21T10:01:58.119Z,9.00
2017-07-21T10:02:58.116Z,9.00
2017-07-21T10:03:58.108Z,9.00
2017-07-21T10:04:58.091Z,9.00
2017-07-21T10:05:58.037Z,9.00
2017-07-21T10:06:58.129Z,9.00
2017-07-21T10:07:58.265Z,5.80
2017-07-21T10:08:58.217Z,5.80
2017-07-21T10:09:58.132Z,5.80
2017-07-21T10:10:58.162Z,5.80
2017-07-21T10:11:58.193Z,5.80
2017-07-21T10:12:58.148Z,5.80
2017-07-21T10:13:58.130Z,5.80
2017-07-21T10:14:58.160Z,5.80
2017-07-21T10:15:58.135Z,5.80
2017-07-21T10:16:58.193Z,5.80
2017-07-21T10:17:58.204Z,4.40
2017-07-21T10:18:58.271Z,4.40
2017-07-21T10:19:58.157Z,4.40
2017-07-21T10:20:58.205Z,4.40
2017-07-21T10:21:58.232Z,4.40
2017-07-21T10:22:58.193Z,4.40
2017-07-21T10:23:58.192Z,4.40
2017-07-21T10:24:58.132Z,4.40
2017-07-21T10:25:58.142Z,4.40
2017-07-21T10:26:58.168Z,4.40
2017-07-21T10:27:58.160Z,6.30
2017-07-21T10:28:58.163Z,6.30
2017-07-21T10:29:58.194Z,6.30
2017-07-21T10:30:58.163Z,6.30
2017-07-21T10:31:58.136Z,6.30
2017-07-21T10:32:58.130Z,6.30
2017-07-21T10:33:58.199Z,6.30
2017-07-21T10:34:58.135Z,6.30
2017-07-21T10:35:58.131Z,6.30
2017-07-21T10:36:58.233Z,6.30
2017-07-21T10:37:58.175Z,7.70
2017-07-21T10:38:58.170Z,7.70
2017-07-21T10:39:58.180Z,7.70
2017-07-21T10:40:58.182Z,7.70
2017-07-21T10:41:58.173Z,7.70
2017-07-21T10:42:58.242Z,7.70
2017-07-21T10:43:58.225Z,7.70
2017-07-21T10:44:58.210Z,7.70
2017-07-21T10:45:58.175Z,7.70
2017-07-21T10:46:58.157Z,7.70
2017-07-21T10:47:58.137Z,6.30
2017-07-21T10:48:58.214Z,6.30
2017-07-21T10:49:58.205Z,6.30
2017-07-21T10:50:58.141Z,6.30
2017-07-21T10:51:58.178Z,6.30
2017-07-21T10:52:58.177Z,6.30
2017-07-21T10:53:58.176Z,6.30
2017-07-21T10:54:58.186Z,6.30
2017-07-21T10:55:58.145Z,6.30
2017-07-21T10:56:58.173Z,6.30
2017-07-21T10:57:58.209Z,4.10
2017-07-21T10:58:58.212Z,4.10
2017-07-21T10:59:58.148Z,4.10
2017-07-21T11:00:58.149Z,4.10
2017-07-21T11:01:58.149Z,4.10
2017-07-21T11:02:58.182Z,4.10
2017-07-21T11:03:58.218Z,4.10
2017-07-21T11:04:58.148Z,4.10
2017-07-21T11:05:58.186Z,4.10
2017-07-21T11:06:58.153Z,4.10
2017-07-21T11:07:58.181Z,5.40
2017-07-21T11:08:58.184Z,5.40
2017-07-21T11:09:58.223Z,5.40
2017-07-21T11:10:58.171Z,5.40
2017-07-21T11:11:58.230Z,5.40
2017-07-21T11:12:58.166Z,5.40
2017-07-21T11:13:58.161Z,5.40
2017-07-21T11:14:58.166Z,5.40
2017-07-21T11:15:58.140Z,5.40
2017-07-21T11:16:58.176Z,5.40
2017-07-21T11:17:58.158Z,4.20
2017-07-21T11:18:58.191Z,4.20
2017-07-21T11:19:58.227Z,4.20
2017-07-21T11:20:58.195Z,4.20
2017-07-21T11:21:58.161Z,4.20
2017-07-21T11:22:58.165Z,4.20
2017-07-21T11:23:58.163Z,4.20
2017-07-21T11:24:58.188Z,4.20
2017-07-21T11:25:58.196Z,4.20
2017-07-21T11:26:58.195Z,4.20
2017-07-21T11:27:58.175Z,4.10
2017-07-21T11:28:58.208Z,4.10
2017-07-21T11:29:58.172Z,4.10
2017-07-21T11:30:58.262Z,4.10
2017-07-21T11:31:58.268Z,4.10
2017-07-21T11:32:58.264Z,4.10
2017-07-21T11:33:58.208Z,4.10
2017-07-21T11:34:58.194Z,4.10
2017-07-21T11:35:58.237Z,4.10
2017-07-21T11:36:58.177Z,4.10
2017-07-21T11:37:58.128Z,4.00
2017-07-21T11:38:58.144Z,4.00
2017-07-21T11:39:58.157Z,4.00
2017-07-21T11:40:58.214Z,4.00
2017-07-21T11:41:58.194Z,4.00
2017-07-21T11:42:58.185Z,4.00
2017-07-21T11:43:58.189Z,4.00
2017-07-21T11:44:58.210Z,4.00
2017-07-21T11:45:58.209Z,4.00
2017-07-21T11:46:58.179Z,4.00
2017-07-21T11:47:58.171Z,4.30
2017-07-21T11:48:58.179Z,4.30
2017-07-21T11:49:58.234Z,4.30
2017-07-21T11:50:58.204Z,4.30
2017-07-21T11:51:58.238Z,4.30
2017-07-21T11:52:58.238Z,4.30
2017-07-21T11:53:58.211Z,4.30
2017-07-21T11:54:58.238Z,4.30
2017-07-21T11:55:58.207Z,4.30
2017-07-21T11:56:58.208Z,4.30
2017-07-21T11:57:58.210Z,4.30
2017-07-21T11:58:58.285Z,4.90
2017-07-21T11:59:58.230Z,4.90
2017-07-21T12:00:58.188Z,4.90
2017-07-21T12:01:58.281Z,4.90
2017-07-21T12:02:58.219Z,4.90
2017-07-21T12:03:58.191Z,4.90
2017-07-21T12:04:58.217Z,4.90
2017-07-21T12:05:58.246Z,4.90
2017-07-21T12:06:58.219Z,4.90
2017-07-21T12:07:58.255Z,4.90
2017-07-21T12:08:58.219Z,5.30
2017-07-21T12:09:58.271Z,5.30
2017-07-21T12:10:58.253Z,5.30
2017-07-21T12:11:58.229Z,5.30
2017-07-21T12:12:58.291Z,5.30
2017-07-21T12:13:58.233Z,5.30
2017-07-21T12:14:58.220Z,5.30
2017-07-21T12:15:58.225Z,5.30
2017-07-21T12:16:58.209Z,5.30
2017-07-21T12:17:58.288Z,5.30
2017-07-21T12:18:58.196Z,4.20
2017-07-21T12:19:58.261Z,4.20
2017-07-21T12:20:58.219Z,4.20
2017-07-21T12:21:58.259Z,4.20
2017-07-21T12:22:58.257Z,4.20
2017-07-21T12:23:58.285Z,4.20
2017-07-21T12:24:58.226Z,4.20
2017-07-21T12:25:58.202Z,4.20
2017-07-21T12:26:58.198Z,4.20
2017-07-21T12:27:58.197Z,4.20
2017-07-21T12:28:58.201Z,4.99
2017-07-21T12:29:58.277Z,4.99
2017-07-21T12:30:58.284Z,4.99
2017-07-21T12:31:58.267Z,4.99
2017-07-21T12:32:58.215Z,4.99
2017-07-21T12:33:58.246Z,4.99
2017-07-21T12:34:58.296Z,4.99
2017-07-21T12:35:58.280Z,4.99
2017-07-21T12:36:58.300Z,4.99
2017-07-21T12:37:58.272Z,4.99
2017-07-21T12:38:58.263Z,3.90
2017-07-21T12:39:58.236Z,3.90
2017-07-21T12:40:58.275Z,3.90
2017-07-21T12:41:58.267Z,3.90
2017-07-21T12:42:58.361Z,3.90
2017-07-21T12:43:58.241Z,3.90
2017-07-21T12:44:58.208Z,3.90
2017-07-21T12:45:58.265Z,3.90
2017-07-21T12:46:58.238Z,3.90
2017-07-21T12:47:58.236Z,3.90
2017-07-21T12:48:58.239Z,5.50
2017-07-21T12:49:58.237Z,5.50
2017-07-21T12:50:58.283Z,5.50
2017-07-21T12:51:58.243Z,5.50
2017-07-21T12:52:58.282Z,5.50
2017-07-21T12:53:58.197Z,5.50
2017-07-21T12:54:58.283Z,5.50
2017-07-21T12:55:58.228Z,5.50
2017-07-21T12:56:58.239Z,5.50
2017-07-21T12:57:58.251Z,5.50
2017-07-21T12:58:58.195Z,4.00
2017-07-21T12:59:58.227Z,4.00
2017-07-21T13:00:58.254Z,4.00
2017-07-21T13:01:58.221Z,4.00
2017-07-21T13:02:58.250Z,4.00
2017-07-21T13:03:58.248Z,4.00
2017-07-21T13:04:58.195Z,4.00
2017-07-21T13:05:58.289Z,4.00
2017-07-21T13:06:58.234Z,4.00
2017-07-21T13:07:58.255Z,4.00
2017-07-21T13:08:58.251Z,4.50
2017-07-21T13:09:58.241Z,4.50
2017-07-21T13:10:58.256Z,4.50
2017-07-21T13:11:58.251Z,4.50
2017-07-21T13:12:58.292Z,4.50
2017-07-21T13:13:58.185Z,4.50
2017-07-21T13:14:58.231Z,4.50
2017-07-21T13:15:58.229Z,4.50
2017-07-21T13:16:58.234Z,4.50
2017-07-21T13:17:58.257Z,4.50
2017-07-21T13:18:58.219Z,4.99